createdAt,value
2018-05-08T00:00:46.338Z,15.74
2018-05-08T00:03:13.779Z,15.70
2018-05-08T00:05:41.186Z,15.69
2018-05-08T00:08:08.623Z,15.71
2018-05-08T00:10:36.033Z,15.63
2018-05-08T00:13:03.480Z,15.68
2018-05-08T00:15:30.885Z,15.55
2018-05-08T00:17:58.325Z,15.54
2018-05-08T00:20:25.814Z,15.49
2018-05-08T00:22:53.205Z,15.48
2018-05-08T00:25:20.608Z,15.38
2018-05-08T00:27:48.026Z,15.32
2018-05-08T00:30:15.453Z,15.34
2018-05-08T00:32:42.860Z,15.32
2018-05-08T00:35:10.301Z,15.24
2018-05-08T00:37:37.725Z,15.31
2018-05-08T00:40:05.161Z,15.26
2018-05-08T00:42:33.517Z,15.17
2018-05-08T00:45:00.953Z,15.21
2018-05-08T00:47:28.375Z,15.18
2018-05-08T00:49:55.806Z,15.18
2018-05-08T00:52:23.215Z,15.06
2018-05-08T00:55:02.374Z,15.08
2018-05-08T00:57:29.794Z,15.04
2018-05-08T00:59:57.233Z,15.14
2018-05-08T01:02:24.645Z,15.11
2018-05-08T01:04:52.084Z,15.10
2018-05-08T01:07:19.496Z,15.10
2018-05-08T01:09:46.929Z,15.09
2018-05-08T01:12:14.335Z,15.08
2018-05-08T01:14:41.785Z,15.08
2018-05-08T01:17:09.216Z,15.18
2018-05-08T01:19:36.641Z,15.17
2018-05-08T01:22:04.513Z,15.21
2018-05-08T01:24:31.922Z,15.31
2018-05-08T01:27:00.365Z,15.36
2018-05-08T01:29:28.710Z,15.46
2018-05-08T01:31:56.142Z,15.42
2018-05-08T01:34:23.649Z,15.39
2018-05-08T01:36:51.081Z,15.44
2018-05-08T01:39:18.533Z,15.45
2018-05-08T01:41:45.965Z,15.46
2018-05-08T01:44:13.380Z,15.50
2018-05-08T01:46:40.826Z,15.53
2018-05-08T01:49:08.238Z,15.52
2018-05-08T01:51:35.677Z,15.54
2018-05-08T01:54:03.090Z,15.51
2018-05-08T01:56:30.545Z,15.52
2018-05-08T01:58:57.956Z,15.47
2018-05-08T02:01:25.405Z,15.46
2018-05-08T02:03:52.813Z,15.43
2018-05-08T02:06:20.229Z,15.41
2018-05-08T02:08:47.673Z,15.37
2018-05-08T02:11:15.074Z,15.34
2018-05-08T02:13:42.514Z,15.34
2018-05-08T02:16:10.901Z,15.31
2018-05-08T02:18:38.345Z,15.33
2018-05-08T02:21:05.749Z,15.40
2018-05-08T02:23:33.201Z,15.31
2018-05-08T02:26:00.736Z,15.30
2018-05-08T02:28:29.026Z,15.32
2018-05-08T02:30:56.446Z,15.36
2018-05-08T02:33:23.889Z,15.32
2018-05-08T02:35:51.297Z,15.20
2018-05-08T02:38:18.735Z,15.31
2018-05-08T02:40:46.145Z,15.24
2018-05-08T02:43:13.579Z,15.30
2018-05-08T02:45:40.990Z,15.19
2018-05-08T02:48:08.442Z,15.17
2018-05-08T02:50:35.856Z,15.09
2018-05-08T02:53:03.268Z,15.10
2018-05-08T02:55:30.709Z,15.04
2018-05-08T02:57:59.465Z,15.04
2018-05-08T03:00:26.895Z,15.09
2018-05-08T03:02:54.305Z,15.08
2018-05-08T03:05:21.750Z,15.10
2018-05-08T03:07:49.165Z,15.04
2018-05-08T03:10:16.595Z,15.01
2018-05-08T03:12:44.006Z,15.03
2018-05-08T03:15:11.437Z,14.94
2018-05-08T03:17:39.778Z,14.94
2018-05-08T03:20:07.214Z,14.94
2018-05-08T03:22:34.621Z,14.90
2018-05-08T03:25:02.588Z,14.94
2018-05-08T03:27:29.999Z,14.94
2018-05-08T03:29:57.441Z,14.96
2018-05-08T03:32:24.856Z,14.97
2018-05-08T03:34:52.257Z,14.98
2018-05-08T03:37:19.697Z,14.92
2018-05-08T03:39:47.105Z,14.93
2018-05-08T03:42:14.545Z,15.04
2018-05-08T03:44:42.002Z,15.04
2018-05-08T03:47:09.398Z,15.06
2018-05-08T03:49:36.805Z,15.04
2018-05-08T03:52:04.245Z,15.10
2018-05-08T03:54:31.654Z,15.12
2018-05-08T03:56:59.113Z,15.12
2018-05-08T03:59:27.008Z,15.16
2018-05-08T04:02:06.465Z,15.11
2018-05-08T04:04:46.765Z,14.99
2018-05-08T04:07:25.950Z,14.83
2018-05-08T04:09:54.161Z,14.78
2018-05-08T04:12:21.617Z,14.50
2018-05-08T04:14:49.034Z,14.65
2018-05-08T04:17:16.463Z,14.76
2018-05-08T04:19:43.889Z,14.86
2018-05-08T04:22:11.345Z,15.00
2018-05-08T04:24:38.762Z,15.03
2018-05-08T04:27:06.180Z,14.97
2018-05-08T04:29:34.557Z,15.00
2018-05-08T04:32:01.969Z,15.06
2018-05-08T04:34:29.402Z,15.17
2018-05-08T04:36:57.345Z,15.25
2018-05-08T04:39:24.790Z,15.36
2018-05-08T04:41:52.211Z,15.46
2018-05-08T04:44:19.658Z,15.57
2018-05-08T04:46:47.072Z,15.63
2018-05-08T04:49:14.516Z,15.73
2018-05-08T04:51:41.940Z,15.96
2018-05-08T04:54:09.377Z,16.14
2018-05-08T04:56:36.799Z,16.26
2018-05-08T04:59:04.237Z,16.43
2018-05-08T05:01:31.642Z,16.61
2018-05-08T05:03:59.079Z,16.71
2018-05-08T05:06:26.911Z,17.00
2018-05-08T05:08:54.324Z,17.13
2018-05-08T05:11:21.772Z,17.15
2018-05-08T05:13:49.534Z,17.06
2018-05-08T05:16:16.969Z,17.05
2018-05-08T05:18:45.110Z,17.15
2018-05-08T05:21:12.557Z,17.04
2018-05-08T05:23:39.973Z,17.16
2018-05-08T05:26:08.311Z,17.21
2018-05-08T05:28:35.721Z,17.41
2018-05-08T05:31:04.064Z,17.55
2018-05-08T05:33:31.477Z,17.58
2018-05-08T05:35:59.876Z,17.78
2018-05-08T05:38:27.285Z,18.00
2018-05-08T05:40:54.715Z,18.33
2018-05-08T05:43:22.606Z,19.30
2018-05-08T05:45:50.038Z,20.15
2018-05-08T05:48:17.840Z,20.71
2018-05-08T05:50:46.174Z,20.77
2018-05-08T05:53:13.612Z,20.33
2018-05-08T05:55:41.042Z,20.16
2018-05-08T05:58:08.460Z,20.11
2018-05-08T06:00:36.397Z,19.89
2018-05-08T06:03:03.838Z,19.62
2018-05-08T06:05:31.246Z,19.63
2018-05-08T06:07:58.678Z,19.92
2018-05-08T06:10:26.085Z,19.97
2018-05-08T06:12:55.522Z,20.09
2018-05-08T06:15:22.941Z,20.27
2018-05-08T06:17:50.373Z,20.38
2018-05-08T06:20:17.786Z,20.19
2018-05-08T06:22:45.214Z,20.32
2018-05-08T06:25:12.625Z,20.51
2018-05-08T06:27:40.065Z,20.51
2018-05-08T06:30:07.482Z,20.86
2018-05-08T06:32:34.921Z,20.99
2018-05-08T06:35:02.337Z,21.02
2018-05-08T06:37:29.794Z,20.75
2018-05-08T06:39:58.148Z,21.01
2018-05-08T06:42:29.318Z,20.90
2018-05-08T06:44:56.763Z,20.65
2018-05-08T06:47:24.170Z,20.93
2018-05-08T06:49:51.611Z,21.14
2018-05-08T06:52:25.375Z,21.44
2018-05-08T06:54:53.805Z,21.74
2018-05-08T06:57:21.152Z,21.85
2018-05-08T06:59:53.195Z,21.54
2018-05-08T07:02:20.610Z,21.88
2018-05-08T07:04:49.026Z,21.89
2018-05-08T07:07:21.869Z,21.74
2018-05-08T07:09:51.236Z,21.97
2018-05-08T07:12:21.893Z,22.05
2018-05-08T07:14:50.327Z,21.96
2018-05-08T07:17:17.741Z,22.15
2018-05-08T07:19:45.222Z,22.22
2018-05-08T07:22:12.657Z,22.26
2018-05-08T07:24:43.627Z,22.99
2018-05-08T07:27:11.966Z,23.13
2018-05-08T07:29:39.424Z,22.78
2018-05-08T07:32:08.832Z,23.03
2018-05-08T07:34:36.322Z,22.96
2018-05-08T07:37:03.746Z,22.73
2018-05-08T07:39:31.186Z,22.92
2018-05-08T07:41:58.613Z,22.80
2018-05-08T07:44:27.066Z,23.24
2018-05-08T07:46:54.522Z,23.83
2018-05-08T07:49:21.969Z,23.34
2018-05-08T07:51:49.427Z,23.27
2018-05-08T07:54:16.825Z,23.42
2018-05-08T07:56:44.254Z,23.86
2018-05-08T07:59:11.688Z,24.00
2018-05-08T08:01:39.158Z,24.11
2018-05-08T08:04:06.644Z,23.67
2018-05-08T08:06:34.086Z,23.27
2018-05-08T08:09:01.502Z,23.61
2018-05-08T08:11:28.978Z,23.95
2018-05-08T08:13:56.405Z,24.05
2018-05-08T08:16:23.857Z,24.29
2018-05-08T08:18:51.286Z,24.24
2018-05-08T08:21:18.713Z,24.13
2018-05-08T08:23:46.179Z,23.87
2018-05-08T08:26:13.576Z,23.57
2018-05-08T08:28:40.992Z,24.16
2018-05-08T08:31:08.538Z,23.86
2018-05-08T08:33:35.949Z,23.79
2018-05-08T08:36:03.362Z,23.76
2018-05-08T08:38:30.897Z,24.42
2018-05-08T08:40:58.395Z,24.34
2018-05-08T08:43:25.745Z,24.33
2018-05-08T08:45:53.160Z,24.26
2018-05-08T08:48:20.598Z,24.50
2018-05-08T08:50:49.110Z,24.58
2018-05-08T08:53:17.477Z,24.30
2018-05-08T08:55:44.901Z,24.45
2018-05-08T08:58:12.341Z,24.78
2018-05-08T09:00:39.754Z,24.62
2018-05-08T09:03:07.205Z,24.24
2018-05-08T09:05:34.677Z,24.25
2018-05-08T09:08:02.241Z,24.74
2018-05-08T09:10:29.653Z,24.76
2018-05-08T09:12:57.105Z,24.62
2018-05-08T09:15:24.516Z,24.50
2018-05-08T09:17:51.953Z,25.02
2018-05-08T09:20:19.373Z,24.91
2018-05-08T09:22:46.782Z,24.57
2018-05-08T09:25:14.222Z,24.71
2018-05-08T09:27:41.673Z,24.56
2018-05-08T09:30:09.090Z,24.88
2018-05-08T09:32:36.598Z,24.74
2018-05-08T09:35:04.041Z,24.74
2018-05-08T09:37:31.449Z,24.88
2018-05-08T09:39:58.889Z,25.16
2018-05-08T09:42:26.329Z,25.07
2018-05-08T09:44:53.778Z,25.49
2018-05-08T09:47:21.342Z,25.73
2018-05-08T09:49:48.796Z,25.89
2018-05-08T09:52:16.217Z,25.67
2018-05-08T09:54:44.633Z,25.61
2018-05-08T09:57:12.046Z,25.62
2018-05-08T09:59:39.550Z,25.61
2018-05-08T10:02:06.962Z,25.22
2018-05-08T10:04:34.370Z,24.98
2018-05-08T10:07:01.810Z,24.93
2018-05-08T10:09:29.221Z,25.16
2018-05-08T10:11:56.836Z,25.00
2018-05-08T10:14:24.286Z,25.05
2018-05-08T10:16:51.732Z,25.16
2018-05-08T10:19:19.139Z,25.27
2018-05-08T10:21:46.590Z,25.00
2018-05-08T10:24:14.011Z,24.69
2018-05-08T10:26:41.489Z,25.03
2018-05-08T10:29:08.925Z,25.08
2018-05-08T10:31:36.374Z,25.25
2018-05-08T10:34:03.815Z,24.92
2018-05-08T10:36:31.250Z,25.13
2018-05-08T10:38:58.749Z,25.56
2018-05-08T10:41:26.229Z,25.61
2018-05-08T10:43:53.639Z,25.40
2018-05-08T10:46:21.052Z,25.18
2018-05-08T10:48:48.580Z,25.31
2018-05-08T10:51:15.997Z,25.40
2018-05-08T10:53:43.447Z,25.55
2018-05-08T10:56:10.946Z,25.17
2018-05-08T10:58:38.401Z,25.44
2018-05-08T11:01:05.822Z,25.60
2018-05-08T11:03:33.256Z,25.84
2018-05-08T11:06:00.782Z,25.78
2018-05-08T11:08:28.238Z,25.86
2018-05-08T11:10:55.688Z,25.72
2018-05-08T11:13:23.114Z,25.78
2018-05-08T11:15:50.557Z,26.10
2018-05-08T11:18:18.053Z,25.89
2018-05-08T11:20:45.505Z,25.68
2018-05-08T11:23:12.920Z,25.70
2018-05-08T11:25:40.354Z,25.78
2018-05-08T11:28:07.778Z,25.66
2018-05-08T11:30:35.225Z,25.71
2018-05-08T11:33:02.651Z,25.93
2018-05-08T11:35:30.086Z,25.80
2018-05-08T11:37:57.499Z,26.09
2018-05-08T11:40:24.934Z,25.85
2018-05-08T11:42:52.357Z,25.87
2018-05-08T11:45:19.802Z,25.82
2018-05-08T11:47:47.224Z,25.67
2018-05-08T11:50:14.686Z,26.10
2018-05-08T11:52:42.131Z,25.77
2018-05-08T11:55:09.565Z,25.91
2018-05-08T11:57:37.014Z,25.82
2018-05-08T12:00:04.422Z,25.54
2018-05-08T12:02:31.932Z,25.48
2018-05-08T12:04:59.329Z,25.68
2018-05-08T12:07:26.770Z,26.26
2018-05-08T12:09:54.181Z,26.32
2018-05-08T12:12:21.698Z,26.26
2018-05-08T12:14:49.183Z,26.32
2018-05-08T12:17:16.561Z,26.38
2018-05-08T12:19:43.970Z,26.19
2018-05-08T12:22:11.434Z,26.16
2018-05-08T12:24:38.853Z,26.37
2018-05-08T12:27:06.340Z,26.14
2018-05-08T12:29:33.753Z,26.19
2018-05-08T12:32:01.171Z,26.50
2018-05-08T12:34:28.705Z,26.87
2018-05-08T12:36:56.117Z,26.37
2018-05-08T12:39:23.558Z,26.49
2018-05-08T12:41:50.969Z,26.67
2018-05-08T12:44:18.408Z,27.02
2018-05-08T12:46:45.833Z,26.65
2018-05-08T12:49:13.270Z,26.91
2018-05-08T12:51:40.684Z,27.26
2018-05-08T12:54:08.154Z,26.93
2018-05-08T12:56:35.570Z,27.17
2018-05-08T12:59:03.109Z,26.66
2018-05-08T13:01:30.522Z,26.10
2018-05-08T13:03:57.979Z,26.24
2018-05-08T13:06:25.374Z,26.72
2018-05-08T13:08:52.890Z,26.97
2018-05-08T13:11:20.338Z,27.25
2018-05-08T13:13:47.746Z,27.06
2018-05-08T13:16:15.185Z,26.97
2018-05-08T13:18:42.617Z,26.68
2018-05-08T13:21:10.095Z,27.06
2018-05-08T13:23:37.539Z,27.30
2018-05-08T13:26:04.982Z,27.15
2018-05-08T13:28:32.405Z,27.24
2018-05-08T13:30:59.971Z,27.30
2018-05-08T13:33:27.313Z,28.06
2018-05-08T13:35:54.818Z,29.07
2018-05-08T13:38:22.225Z,29.57
2018-05-08T13:40:49.665Z,29.81
2018-05-08T13:43:17.177Z,29.66
2018-05-08T13:45:44.593Z,29.79
2018-05-08T13:48:12.152Z,30.48
2018-05-08T13:50:39.555Z,30.89
2018-05-08T13:53:06.992Z,31.89
2018-05-08T13:55:34.399Z,34.00
2018-05-08T13:58:01.829Z,34.89
2018-05-08T14:00:29.242Z,35.97
2018-05-08T14:02:56.809Z,35.49
2018-05-08T14:05:24.294Z,35.22
2018-05-08T14:07:51.766Z,34.99
2018-05-08T14:10:19.182Z,34.49
2018-05-08T14:12:46.594Z,33.82
2018-05-08T14:15:14.225Z,34.52
2018-05-08T14:17:41.649Z,34.19
2018-05-08T14:20:09.097Z,34.96
2018-05-08T14:22:36.503Z,34.88
2018-05-08T14:25:03.938Z,34.66
2018-05-08T14:27:31.354Z,34.91
2018-05-08T14:29:58.874Z,35.74
2018-05-08T14:32:26.326Z,35.04
2018-05-08T14:34:53.779Z,36.86
2018-05-08T14:37:21.198Z,36.73
2018-05-08T14:39:48.689Z,37.16
2018-05-08T14:42:16.130Z,37.51
2018-05-08T14:44:43.554Z,39.81
2018-05-08T14:47:10.983Z,39.60
2018-05-08T14:49:38.459Z,39.49
2018-05-08T14:52:05.865Z,38.87
2018-05-08T14:54:33.291Z,39.27
2018-05-08T14:57:00.718Z,40.90
2018-05-08T14:59:28.129Z,43.66
2018-05-08T15:01:55.580Z,40.27
2018-05-08T15:04:23.144Z,42.33
2018-05-08T15:06:50.510Z,42.20
2018-05-08T15:09:17.949Z,40.60
2018-05-08T15:11:45.408Z,44.03
2018-05-08T15:14:12.805Z,44.94
2018-05-08T15:16:40.229Z,42.76
2018-05-08T15:19:07.686Z,43.07
2018-05-08T15:21:35.129Z,44.18
2018-05-08T15:24:02.605Z,44.42
2018-05-08T15:26:30.022Z,44.13
2018-05-08T15:28:57.523Z,44.55
2018-05-08T15:31:24.933Z,43.99
2018-05-08T15:33:52.362Z,42.99
2018-05-08T15:36:19.770Z,44.35
2018-05-08T15:38:47.205Z,44.08
2018-05-08T15:41:14.701Z,42.15
2018-05-08T15:43:42.149Z,42.87
2018-05-08T15:46:09.568Z,43.36
2018-05-08T15:48:37.066Z,42.79
2018-05-08T15:51:04.485Z,42.48
2018-05-08T15:53:31.921Z,41.07
2018-05-08T15:55:59.325Z,40.67
2018-05-08T15:58:26.766Z,40.26
2018-05-08T16:00:54.244Z,40.71
2018-05-08T16:03:21.702Z,41.83
2018-05-08T16:05:49.151Z,42.30
2018-05-08T16:08:16.550Z,43.61
2018-05-08T16:10:43.986Z,45.37
2018-05-08T16:13:11.388Z,47.27
2018-05-08T16:15:38.817Z,45.30
2018-05-08T16:18:06.230Z,43.13
2018-05-08T16:20:33.683Z,43.16
2018-05-08T16:23:01.093Z,43.70
2018-05-08T16:25:28.534Z,43.84
2018-05-08T16:27:55.938Z,42.71
2018-05-08T16:30:23.454Z,43.38
2018-05-08T16:32:50.798Z,43.34
2018-05-08T16:35:19.255Z,43.38
2018-05-08T16:37:46.669Z,43.62
2018-05-08T16:40:14.103Z,43.31
2018-05-08T16:42:41.512Z,43.68
2018-05-08T16:45:08.918Z,43.17
2018-05-08T16:47:37.432Z,41.76
2018-05-08T16:50:04.770Z,42.70
2018-05-08T16:52:32.209Z,42.04
2018-05-08T16:54:59.626Z,40.57
2018-05-08T16:57:27.073Z,40.30
2018-05-08T16:59:54.497Z,39.74
2018-05-08T17:02:21.935Z,40.10
2018-05-08T17:04:49.358Z,32.43
2018-05-08T17:07:16.792Z,29.11
2018-05-08T17:09:44.200Z,27.32
2018-05-08T17:12:11.638Z,26.18
2018-05-08T17:14:39.054Z,25.60
2018-05-08T17:17:06.503Z,25.19
2018-05-08T17:19:33.923Z,24.67
2018-05-08T17:22:01.359Z,24.68
2018-05-08T17:24:28.771Z,24.62
2018-05-08T17:26:57.130Z,24.30
2018-05-08T17:29:24.544Z,24.05
2018-05-08T17:31:52.849Z,23.56
2018-05-08T17:34:20.301Z,23.28
2018-05-08T17:36:47.718Z,23.28
2018-05-08T17:39:15.151Z,23.01
2018-05-08T17:41:42.586Z,22.98
2018-05-08T17:44:10.031Z,23.07
2018-05-08T17:46:37.449Z,22.66
2018-05-08T17:49:04.894Z,22.47
2018-05-08T17:51:32.309Z,22.61
2018-05-08T17:53:59.757Z,22.59
2018-05-08T17:56:27.757Z,22.34
2018-05-08T17:58:56.094Z,22.42
2018-05-08T18:01:24.516Z,22.22
2018-05-08T18:03:51.961Z,21.98
2018-05-08T18:06:19.372Z,22.04
2018-05-08T18:08:46.817Z,22.19
2018-05-08T18:11:14.231Z,21.94
2018-05-08T18:13:42.587Z,21.78
2018-05-08T18:16:09.990Z,21.85
2018-05-08T18:18:37.451Z,21.64
2018-05-08T18:21:04.877Z,21.37
2018-05-08T18:23:32.286Z,21.36
2018-05-08T18:25:59.722Z,21.31
2018-05-08T18:28:28.227Z,21.26
2018-05-08T18:30:55.656Z,21.15
2018-05-08T18:33:23.134Z,21.08
2018-05-08T18:35:52.574Z,21.02
2018-05-08T18:38:19.994Z,20.91
2018-05-08T18:40:47.473Z,20.82
2018-05-08T18:43:14.923Z,20.88
2018-05-08T18:45:43.274Z,20.64
2018-05-08T18:48:10.713Z,20.57
2018-05-08T18:50:38.154Z,20.42
2018-05-08T18:53:05.567Z,20.39
2018-05-08T18:55:33.002Z,20.42
2018-05-08T18:58:00.430Z,20.24
2018-05-08T19:00:27.862Z,20.20
2018-05-08T19:02:56.282Z,20.13
2018-05-08T19:05:23.783Z,20.00
2018-05-08T19:07:51.261Z,20.05
2018-05-08T19:10:18.710Z,20.02
2018-05-08T19:12:46.142Z,19.90
2018-05-08T19:15:19.306Z,19.86
2018-05-08T19:17:46.745Z,19.86
2018-05-08T19:20:14.157Z,19.74
2018-05-08T19:22:41.684Z,19.55
2018-05-08T19:25:10.077Z,19.58
2018-05-08T19:27:37.510Z,19.50
2018-05-08T19:30:10.497Z,19.47
2018-05-08T19:32:37.946Z,19.39
2018-05-08T19:35:11.065Z,19.44
2018-05-08T19:37:44.310Z,19.49
2018-05-08T19:40:11.725Z,19.38
2018-05-08T19:42:39.160Z,19.31
2018-05-08T19:45:06.594Z,19.22
2018-05-08T19:47:34.039Z,19.29
2018-05-08T19:50:01.450Z,19.16
2018-05-08T19:52:29.905Z,19.05
2018-05-08T19:54:57.302Z,19.03
2018-05-08T19:57:24.738Z,18.96
2018-05-08T19:59:53.154Z,19.03
2018-05-08T20:02:20.738Z,19.02
2018-05-08T20:04:48.075Z,19.05
2018-05-08T20:07:15.559Z,18.91
2018-05-08T20:09:42.994Z,18.91
2018-05-08T20:12:10.467Z,18.80
2018-05-08T20:14:37.898Z,18.77
2018-05-08T20:17:05.360Z,18.75
2018-05-08T20:19:32.766Z,18.76
2018-05-08T20:22:00.181Z,18.77
2018-05-08T20:24:27.632Z,18.77
2018-05-08T20:26:55.040Z,18.78
2018-05-08T20:29:22.635Z,18.73
2018-05-08T20:31:49.982Z,18.65
2018-05-08T20:34:18.387Z,18.66
2018-05-08T20:36:45.798Z,18.67
2018-05-08T20:39:14.104Z,18.63
2018-05-08T20:41:41.583Z,18.63
2018-05-08T20:44:09.046Z,18.64
2018-05-08T20:46:36.471Z,18.57
2018-05-08T20:49:03.917Z,18.55
2018-05-08T20:51:31.318Z,18.54
2018-05-08T20:53:58.765Z,18.56
2018-05-08T20:56:26.222Z,18.53
2018-05-08T20:58:53.674Z,18.55
2018-05-08T21:01:21.219Z,18.48
2018-05-08T21:03:48.534Z,18.38
2018-05-08T21:06:15.974Z,18.49
2018-05-08T21:08:43.386Z,18.54
2018-05-08T21:11:10.837Z,18.42
2018-05-08T21:13:39.247Z,18.51
2018-05-08T21:16:06.723Z,18.43
2018-05-08T21:18:34.129Z,18.45
2018-05-08T21:21:01.570Z,18.43
2018-05-08T21:23:29.066Z,18.38
2018-05-08T21:25:56.501Z,18.35
2018-05-08T21:28:29.481Z,18.39
2018-05-08T21:31:02.479Z,18.44
2018-05-08T21:33:29.896Z,18.36
2018-05-08T21:35:57.412Z,18.34
2018-05-08T21:38:24.828Z,18.32
2018-05-08T21:40:52.266Z,18.27
2018-05-08T21:43:19.743Z,18.26
2018-05-08T21:45:47.166Z,18.24
2018-05-08T21:48:14.601Z,18.21
2018-05-08T21:50:42.149Z,18.21
2018-05-08T21:53:10.517Z,18.21
2018-05-08T21:55:37.921Z,18.19
2018-05-08T21:58:05.349Z,18.08
2018-05-08T22:00:32.762Z,18.06
2018-05-08T22:03:00.214Z,18.10
2018-05-08T22:05:31.049Z,18.10
2018-05-08T22:07:59.385Z,18.00
2018-05-08T22:10:26.798Z,17.97
2018-05-08T22:12:54.233Z,18.01
2018-05-08T22:15:21.646Z,17.94
2018-05-08T22:17:49.091Z,17.86
2018-05-08T22:20:18.554Z,17.83
2018-05-08T22:22:45.917Z,17.83
2018-05-08T22:25:14.295Z,17.83
2018-05-08T22:27:41.738Z,17.74
2018-05-08T22:30:09.153Z,17.83
2018-05-08T22:32:36.595Z,17.80
2018-05-08T22:35:04.217Z,17.69
2018-05-08T22:37:31.711Z,17.73
2018-05-08T22:39:59.095Z,17.75
2018-05-08T22:42:26.567Z,17.69
2018-05-08T22:44:54.010Z,17.64
2018-05-08T22:47:21.436Z,17.63
2018-05-08T22:49:48.874Z,17.61
2018-05-08T22:52:16.298Z,17.58
2018-05-08T22:54:43.738Z,17.59
2018-05-08T22:57:11.178Z,17.51
2018-05-08T22:59:38.615Z,17.57
2018-05-08T23:02:06.033Z,17.52
2018-05-08T23:04:33.469Z,17.49
2018-05-08T23:07:01.838Z,17.47
2018-05-08T23:09:29.283Z,17.45
2018-05-08T23:11:56.695Z,17.46
2018-05-08T23:14:24.129Z,17.47
2018-05-08T23:16:51.537Z,17.39
2018-05-08T23:19:19.093Z,17.38
2018-05-08T23:21:46.553Z,17.31
2018-05-08T23:24:13.963Z,17.42
2018-05-08T23:26:41.430Z,17.29
2018-05-08T23:29:08.838Z,17.29
2018-05-08T23:31:36.273Z,17.29
2018-05-08T23:34:03.681Z,17.20
2018-05-08T23:36:31.110Z,17.16
2018-05-08T23:38:58.520Z,17.21
2018-05-08T23:41:25.953Z,17.16
2018-05-08T23:43:53.365Z,17.15
2018-05-08T23:46:20.797Z,17.16
2018-05-08T23:48:48.214Z,17.19
2018-05-08T23:51:15.650Z,17.13
2018-05-08T23:53:43.131Z,17.08
2018-05-08T23:56:10.498Z,17.04
2018-05-08T23:58:37.917Z,17.09
